createdAt,value
2023-09-21T00:00:47.238Z,98553.80
2023-09-21T00:03:32.715Z,98552.95
2023-09-21T00:06:03.885Z,98558.00
2023-09-21T00:08:34.985Z,98548.18
2023-09-21T00:11:09.043Z,98541.40
2023-09-21T00:13:41.198Z,98543.09
2023-09-21T00:16:13.552Z,98544.21
2023-09-21T00:18:45.262Z,98541.71
2023-09-21T00:21:22.590Z,98536.73
2023-09-21T00:23:54.146Z,98529.34
2023-09-21T00:26:25.665Z,98531.33
2023-09-21T00:28:59.249Z,98529.64
2023-09-21T00:31:31.430Z,98536.20
2023-09-21T00:34:02.212Z,98541.40
2023-09-21T00:36:34.198Z,98545.95
2023-09-21T00:39:05.751Z,98546.27
2023-09-21T00:41:40.618Z,98548.83
2023-09-21T00:44:11.906Z,98554.84
2023-09-21T00:46:46.916Z,98553.41
2023-09-21T00:49:20.188Z,98545.67
2023-09-21T00:51:52.694Z,98533.88
2023-09-21T00:54:25.866Z,98521.33
2023-09-21T00:56:59.968Z,98514.48
2023-09-21T00:59:39.211Z,98515.94
2023-09-21T01:02:13.839Z,98517.89
2023-09-21T01:04:44.153Z,98519.67
2023-09-21T01:07:24.330Z,98522.01
2023-09-21T01:09:55.143Z,98516.83
2023-09-21T01:12:29.897Z,98529.90
2023-09-21T01:15:13.255Z,98529.98
2023-09-21T01:17:48.287Z,98517.23
2023-09-21T01:20:21.878Z,98511.32
2023-09-21T01:23:14.129Z,98512.20
2023-09-21T01:25:48.579Z,98510.95
2023-09-21T01:28:25.200Z,98509.73
2023-09-21T01:31:00.194Z,98509.20
2023-09-21T01:33:31.118Z,98516.53
2023-09-21T01:36:03.164Z,98519.73
2023-09-21T01:38:37.387Z,98514.39
2023-09-21T01:41:10.609Z,98500.89
2023-09-21T01:43:41.040Z,98498.02
2023-09-21T01:46:12.503Z,98492.36
2023-09-21T01:48:45.081Z,98483.81
2023-09-21T01:51:16.425Z,98467.69
2023-09-21T01:53:47.902Z,98467.27
2023-09-21T01:56:22.492Z,98465.89
2023-09-21T01:58:55.953Z,98463.34
2023-09-21T02:01:33.753Z,98463.15
2023-09-21T02:04:11.128Z,98449.89
2023-09-21T02:06:42.303Z,98444.30
2023-09-21T02:09:17.425Z,98444.63
2023-09-21T02:11:51.497Z,98436.75
2023-09-21T02:14:25.928Z,98435.69
2023-09-21T02:17:00.660Z,98428.42
2023-09-21T02:19:39.794Z,98418.88
2023-09-21T02:22:13.869Z,98406.92
2023-09-21T02:24:44.218Z,98398.23
2023-09-21T02:27:18.427Z,98407.66
2023-09-21T02:29:50.181Z,98412.27
2023-09-21T02:32:20.718Z,98413.19
2023-09-21T02:34:54.153Z,98418.01
2023-09-21T02:37:27.381Z,98427.16
2023-09-21T02:40:00.392Z,98431.88
2023-09-21T02:42:33.127Z,98431.98
2023-09-21T02:45:07.097Z,98430.95
2023-09-21T02:47:38.180Z,98425.53
2023-09-21T02:50:39.619Z,98420.72
2023-09-21T02:53:14.336Z,98416.57
2023-09-21T02:55:50.738Z,98415.13
2023-09-21T02:58:22.569Z,98420.16
2023-09-21T03:00:53.139Z,98426.74
2023-09-21T03:03:27.508Z,98434.02
2023-09-21T03:06:01.495Z,98442.63
2023-09-21T03:08:35.364Z,98433.71
2023-09-21T03:11:08.744Z,98429.35
2023-09-21T03:13:40.648Z,98430.70
2023-09-21T03:16:19.522Z,98433.81
2023-09-21T03:18:52.904Z,98422.08
2023-09-21T03:21:27.196Z,98418.98
2023-09-21T03:23:58.011Z,98390.60
2023-09-21T03:26:28.756Z,98385.77
2023-09-21T03:29:01.125Z,98385.28
2023-09-21T03:31:32.975Z,98383.36
2023-09-21T03:34:05.913Z,98374.27
2023-09-21T03:36:41.036Z,98366.27
2023-09-21T03:39:13.813Z,98341.59
2023-09-21T03:41:48.198Z,98334.27
2023-09-21T03:44:19.829Z,98327.69
2023-09-21T03:46:52.493Z,98317.55
2023-09-21T03:49:26.182Z,98322.83
2023-09-21T03:51:58.670Z,98322.98
2023-09-21T03:54:29.257Z,98312.10
2023-09-21T03:57:08.226Z,98321.19
2023-09-21T03:59:43.334Z,98323.98
2023-09-21T04:02:21.384Z,98322.45
2023-09-21T04:05:07.052Z,98324.64
2023-09-21T04:07:43.454Z,98339.16
2023-09-21T04:10:15.545Z,98350.31
2023-09-21T04:12:47.626Z,98365.55
2023-09-21T04:15:20.795Z,98375.29
2023-09-21T04:17:51.906Z,98382.17
2023-09-21T04:20:24.070Z,98382.20
2023-09-21T04:22:58.309Z,98388.81
2023-09-21T04:25:34.449Z,98388.65
2023-09-21T04:28:07.723Z,98394.66
2023-09-21T04:30:39.958Z,98386.29
2023-09-21T04:33:12.030Z,98373.93
2023-09-21T04:35:44.250Z,98360.95
2023-09-21T04:38:18.632Z,98358.48
2023-09-21T04:40:53.688Z,98346.77
2023-09-21T04:43:31.728Z,98334.25
2023-09-21T04:46:06.225Z,98319.75
2023-09-21T04:48:39.249Z,98312.66
2023-09-21T04:51:17.670Z,98309.22
2023-09-21T04:53:51.953Z,98315.84
2023-09-21T04:56:23.551Z,98315.36
2023-09-21T04:58:57.997Z,98302.42
2023-09-21T05:01:30.039Z,98298.84
2023-09-21T05:04:03.014Z,98300.17
2023-09-21T05:06:38.220Z,98290.91
2023-09-21T05:09:15.111Z,98293.61
2023-09-21T05:11:48.524Z,98298.46
2023-09-21T05:14:21.997Z,98299.42
2023-09-21T05:16:53.574Z,98300.38
2023-09-21T05:19:26.630Z,98300.86
2023-09-21T05:22:00.661Z,98303.83
2023-09-21T05:24:37.613Z,98307.64
2023-09-21T05:27:10.884Z,98302.34
2023-09-21T05:29:42.615Z,98299.52
2023-09-21T05:32:16.500Z,98294.80
2023-09-21T05:34:51.404Z,98288.80
2023-09-21T05:37:24.711Z,98285.38
2023-09-21T05:40:00.599Z,98277.21
2023-09-21T05:42:33.262Z,98276.02
2023-09-21T05:45:06.892Z,98282.63
2023-09-21T05:47:41.330Z,98285.11
2023-09-21T05:50:15.723Z,98286.71
2023-09-21T05:52:50.943Z,98290.76
2023-09-21T05:55:21.545Z,98295.40
2023-09-21T05:57:52.336Z,98302.81
2023-09-21T06:00:26.417Z,98302.78
2023-09-21T06:03:02.824Z,98306.52
2023-09-21T06:05:38.924Z,98310.61
2023-09-21T06:08:12.367Z,98320.98
2023-09-21T06:10:49.563Z,98323.69
2023-09-21T06:13:21.567Z,98329.38
2023-09-21T06:15:55.189Z,98327.52
2023-09-21T06:18:29.259Z,98321.84
2023-09-21T06:21:03.563Z,98324.93
2023-09-21T06:23:33.926Z,98332.70
2023-09-21T06:26:08.259Z,98347.51
2023-09-21T06:28:44.282Z,98355.06
2023-09-21T06:31:23.274Z,98361.16
2023-09-21T06:34:01.043Z,98365.13
2023-09-21T06:36:36.570Z,98366.02
2023-09-21T06:39:12.014Z,98372.77
2023-09-21T06:41:43.411Z,98373.20
2023-09-21T06:44:20.011Z,98377.16
2023-09-21T06:46:53.676Z,98379.98
2023-09-21T06:49:24.769Z,98382.86
2023-09-21T06:51:57.859Z,98387.93
2023-09-21T06:54:30.811Z,98394.39
2023-09-21T06:57:06.854Z,98395.52
2023-09-21T06:59:38.961Z,98401.63
2023-09-21T07:02:09.329Z,98401.00
2023-09-21T07:04:40.233Z,98395.58
2023-09-21T07:07:14.132Z,98390.76
2023-09-21T07:09:50.305Z,98389.22
2023-09-21T07:12:24.855Z,98384.48
2023-09-21T07:14:55.844Z,98383.35
2023-09-21T07:17:26.639Z,98380.77
2023-09-21T07:19:58.211Z,98375.33
2023-09-21T07:22:32.597Z,98366.83
2023-09-21T07:25:05.478Z,98367.29
2023-09-21T07:27:36.640Z,98367.61
2023-09-21T07:30:08.738Z,98364.39
2023-09-21T07:32:39.946Z,98363.85
2023-09-21T07:35:13.499Z,98362.65
2023-09-21T07:37:48.423Z,98365.91
2023-09-21T07:40:20.836Z,98366.73
2023-09-21T07:42:53.162Z,98364.91
2023-09-21T07:45:28.194Z,98367.70
2023-09-21T07:48:00.341Z,98362.52
2023-09-21T07:50:36.912Z,98365.61
2023-09-21T07:53:07.676Z,98362.48
2023-09-21T07:55:41.707Z,98367.44
2023-09-21T07:58:12.874Z,98371.23
2023-09-21T08:00:45.901Z,98376.08
2023-09-21T08:03:19.094Z,98374.19
2023-09-21T08:05:51.034Z,98380.14
2023-09-21T08:08:23.507Z,98383.12
2023-09-21T08:10:59.692Z,98380.14
2023-09-21T08:13:32.885Z,98383.27
2023-09-21T08:16:04.677Z,98385.23
2023-09-21T08:18:35.554Z,98382.95
2023-09-21T08:21:10.496Z,98386.48
2023-09-21T08:23:45.155Z,98388.10
2023-09-21T08:26:18.734Z,98394.89
2023-09-21T08:28:52.701Z,98394.70
2023-09-21T08:31:23.984Z,98390.94
2023-09-21T08:33:54.034Z,98381.95
2023-09-21T08:36:24.930Z,98386.58
2023-09-21T08:38:55.910Z,98385.91
2023-09-21T08:41:31.303Z,98382.56
2023-09-21T08:44:05.499Z,98376.77
2023-09-21T08:46:40.768Z,98373.80
2023-09-21T08:49:13.869Z,98379.96
2023-09-21T08:51:46.545Z,98382.45
2023-09-21T08:54:19.696Z,98379.38
2023-09-21T08:56:58.694Z,98375.37
2023-09-21T08:59:31.049Z,98377.67
2023-09-21T09:02:01.367Z,98373.75
2023-09-21T09:04:32.390Z,98375.02
2023-09-21T09:07:04.404Z,98374.86
2023-09-21T09:09:38.494Z,98375.39
2023-09-21T09:12:29.199Z,98380.02
2023-09-21T09:15:04.962Z,98373.86
2023-09-21T09:17:36.004Z,98373.80
2023-09-21T09:20:07.937Z,98371.45
2023-09-21T09:22:40.326Z,98374.91
2023-09-21T09:25:12.531Z,98373.45
2023-09-21T09:27:45.464Z,98368.29
2023-09-21T09:30:21.287Z,98371.50
2023-09-21T09:32:57.017Z,98378.80
2023-09-21T09:35:30.631Z,98373.63
2023-09-21T09:38:01.588Z,98378.23
2023-09-21T09:40:33.851Z,98373.97
2023-09-21T09:43:09.534Z,98371.48
2023-09-21T09:45:43.435Z,98372.98
2023-09-21T09:48:17.121Z,98364.62
2023-09-21T09:50:56.855Z,98361.67
2023-09-21T09:53:30.740Z,98364.80
2023-09-21T09:56:14.440Z,98365.10
2023-09-21T09:58:48.024Z,98362.00
2023-09-21T10:01:20.402Z,98363.13
2023-09-21T10:03:54.336Z,98361.46
2023-09-21T10:06:25.628Z,98362.08
2023-09-21T10:08:58.053Z,98356.67
2023-09-21T10:11:31.883Z,98356.89
2023-09-21T10:14:03.022Z,98356.54
2023-09-21T10:16:33.916Z,98354.89
2023-09-21T10:19:05.955Z,98349.08
2023-09-21T10:21:41.106Z,98342.99
2023-09-21T10:24:15.355Z,98342.37
2023-09-21T10:26:53.819Z,98337.99
2023-09-21T10:29:34.329Z,98338.07
2023-09-21T10:32:13.035Z,98334.13
2023-09-21T10:34:50.730Z,98328.23
2023-09-21T10:37:31.535Z,98325.51
2023-09-21T10:40:10.472Z,98324.56
2023-09-21T10:42:42.603Z,98322.22
2023-09-21T10:45:14.403Z,98321.71
2023-09-21T10:47:54.110Z,98321.19
2023-09-21T10:50:28.423Z,98322.61
2023-09-21T10:53:05.633Z,98319.61
2023-09-21T10:55:42.584Z,98318.77
2023-09-21T10:58:14.310Z,98313.21
2023-09-21T11:00:46.146Z,98302.23
2023-09-21T11:03:18.476Z,98302.71
2023-09-21T11:05:52.196Z,98294.02
2023-09-21T11:08:30.329Z,98292.93
2023-09-21T11:11:05.548Z,98292.43
2023-09-21T11:13:39.872Z,98295.41
2023-09-21T11:16:17.527Z,98301.13
2023-09-21T11:18:52.762Z,98293.11
2023-09-21T11:21:24.726Z,98292.67
2023-09-21T11:23:55.698Z,98291.73
2023-09-21T11:26:29.533Z,98288.09
2023-09-21T11:29:04.887Z,98284.20
2023-09-21T11:31:38.250Z,98285.23
2023-09-21T11:34:08.358Z,98283.64
2023-09-21T11:36:39.234Z,98273.73
2023-09-21T11:39:11.710Z,98272.95
2023-09-21T11:41:45.785Z,98271.33
2023-09-21T11:44:19.175Z,98274.27
2023-09-21T11:46:51.910Z,98273.47
2023-09-21T11:49:27.147Z,98275.90
2023-09-21T11:52:01.063Z,98273.85
2023-09-21T11:54:37.671Z,98267.88
2023-09-21T11:57:14.626Z,98273.70
2023-09-21T11:59:47.133Z,98270.06
2023-09-21T12:02:19.223Z,98260.81
2023-09-21T12:04:51.870Z,98257.66
2023-09-21T12:07:23.211Z,98246.94
2023-09-21T12:09:53.985Z,98251.70
2023-09-21T12:12:28.407Z,98246.23
2023-09-21T12:15:05.666Z,98242.11
2023-09-21T12:17:40.292Z,98245.03
2023-09-21T12:20:19.735Z,98246.73
2023-09-21T12:22:52.148Z,98245.38
2023-09-21T12:25:26.115Z,98250.83
2023-09-21T12:27:59.465Z,98253.45
2023-09-21T12:30:36.297Z,98250.34
2023-09-21T12:33:25.753Z,98242.48
2023-09-21T12:36:07.255Z,98241.79
2023-09-21T12:38:43.471Z,98232.64
2023-09-21T12:41:16.157Z,98234.20
2023-09-21T12:43:48.675Z,98230.41
2023-09-21T12:46:21.612Z,98230.89
2023-09-21T12:48:55.063Z,98233.90
2023-09-21T12:51:27.940Z,98237.17
2023-09-21T12:53:58.009Z,98238.84
2023-09-21T12:56:29.294Z,98250.14
2023-09-21T12:59:01.458Z,98250.27
2023-09-21T13:01:33.456Z,98245.87
2023-09-21T13:04:06.775Z,98251.69
2023-09-21T13:06:46.312Z,98282.82
